createdAt,value
2019-03-10T00:01:05.078Z,6.10
2019-03-10T00:03:33.537Z,6.12
2019-03-10T00:06:02.237Z,6.13
2019-03-10T00:08:30.745Z,6.12
2019-03-10T00:10:59.347Z,6.17
2019-03-10T00:13:28.465Z,6.20
2019-03-10T00:15:57.313Z,6.26
2019-03-10T00:18:25.772Z,6.29
2019-03-10T00:20:54.232Z,6.27
2019-03-10T00:23:22.766Z,6.24
2019-03-10T00:25:51.237Z,6.23
2019-03-10T00:28:19.838Z,6.23
2019-03-10T00:30:48.314Z,6.20
2019-03-10T00:33:16.781Z,6.17
2019-03-10T00:35:45.246Z,6.18
2019-03-10T00:38:14.031Z,6.18
2019-03-10T00:40:51.312Z,6.17
2019-03-10T00:43:28.766Z,6.17
2019-03-10T00:46:22.825Z,6.20
2019-03-10T00:49:10.887Z,6.25
2019-03-10T00:52:05.015Z,6.26
2019-03-10T00:54:33.426Z,6.27
2019-03-10T00:57:01.869Z,6.27
2019-03-10T00:59:30.307Z,6.28
2019-03-10T01:01:59.166Z,6.29
2019-03-10T01:04:27.700Z,6.29
2019-03-10T01:06:56.569Z,6.32
2019-03-10T01:09:25.024Z,6.37
2019-03-10T01:11:53.854Z,6.38
2019-03-10T01:14:22.313Z,6.39
2019-03-10T01:16:51.431Z,6.39
2019-03-10T01:19:20.554Z,6.41
2019-03-10T01:21:49.650Z,6.40
2019-03-10T01:24:18.072Z,6.45
2019-03-10T01:26:46.552Z,6.46
2019-03-10T01:29:14.983Z,6.43
2019-03-10T01:32:13.143Z,6.43
2019-03-10T01:35:00.367Z,6.44
2019-03-10T01:37:28.841Z,6.45
2019-03-10T01:39:57.299Z,6.46
2019-03-10T01:42:25.755Z,6.47
2019-03-10T01:44:54.167Z,6.47
2019-03-10T01:47:22.627Z,6.48
2019-03-10T01:49:51.071Z,6.48
2019-03-10T01:52:19.512Z,6.45
2019-03-10T01:54:47.955Z,6.44
2019-03-10T01:57:16.427Z,6.40
2019-03-10T01:59:44.867Z,6.23
2019-03-10T02:02:13.306Z,6.35
2019-03-10T02:04:41.809Z,6.33
2019-03-10T02:07:10.243Z,6.32
2019-03-10T02:09:38.686Z,6.29
2019-03-10T02:12:07.128Z,6.25
2019-03-10T02:14:35.576Z,6.25
2019-03-10T02:17:04.227Z,6.26
2019-03-10T02:19:32.640Z,6.22
2019-03-10T02:22:01.132Z,6.21
2019-03-10T02:24:29.566Z,6.26
2019-03-10T02:26:58.003Z,6.23
2019-03-10T02:29:26.473Z,6.24
2019-03-10T02:31:54.952Z,6.24
2019-03-10T02:34:23.408Z,6.24
2019-03-10T02:36:51.846Z,6.24
2019-03-10T02:39:20.302Z,6.24
2019-03-10T02:41:48.821Z,6.26
2019-03-10T02:44:17.396Z,6.25
2019-03-10T02:46:45.808Z,6.30
2019-03-10T02:49:14.286Z,6.31
2019-03-10T02:51:42.728Z,6.28
2019-03-10T02:54:11.199Z,6.32
2019-03-10T02:56:39.635Z,6.31
2019-03-10T02:59:08.060Z,6.30
2019-03-10T03:01:36.586Z,6.33
2019-03-10T03:04:05.055Z,6.37
2019-03-10T03:06:33.480Z,6.43
2019-03-10T03:09:01.934Z,6.43
2019-03-10T03:11:30.613Z,6.46
2019-03-10T03:13:59.043Z,6.49
2019-03-10T03:16:27.453Z,6.51
2019-03-10T03:18:56.133Z,6.52
2019-03-10T03:21:24.587Z,6.53
2019-03-10T03:23:53.110Z,6.51
2019-03-10T03:26:21.530Z,6.51
2019-03-10T03:28:50.028Z,6.51
2019-03-10T03:31:18.483Z,6.51
2019-03-10T03:33:47.037Z,6.54
2019-03-10T03:36:18.684Z,6.54
2019-03-10T03:38:52.920Z,6.54
2019-03-10T03:41:23.717Z,6.55
2019-03-10T03:43:52.138Z,6.53
2019-03-10T03:46:20.580Z,6.55
2019-03-10T03:48:49.066Z,6.41
2019-03-10T03:51:17.593Z,6.58
2019-03-10T03:53:46.020Z,6.60
2019-03-10T03:56:14.474Z,6.60
2019-03-10T03:58:43.143Z,6.61
2019-03-10T04:01:19.090Z,6.62
2019-03-10T04:03:47.603Z,6.62
2019-03-10T04:06:16.060Z,6.62
2019-03-10T04:08:44.512Z,6.65
2019-03-10T04:11:12.969Z,6.66
2019-03-10T04:13:41.421Z,6.67
2019-03-10T04:16:09.868Z,6.68
2019-03-10T04:18:38.308Z,6.67
2019-03-10T04:21:06.755Z,6.68
2019-03-10T04:23:35.201Z,6.69
2019-03-10T04:26:03.640Z,6.71
2019-03-10T04:28:32.072Z,6.74
2019-03-10T04:31:00.564Z,6.77
2019-03-10T04:33:29.076Z,6.82
2019-03-10T04:35:57.510Z,6.86
2019-03-10T04:38:25.946Z,6.89
2019-03-10T04:40:54.395Z,6.94
2019-03-10T04:43:22.847Z,6.98
2019-03-10T04:45:51.276Z,7.02
2019-03-10T04:48:19.751Z,7.05
2019-03-10T04:50:48.184Z,7.08
2019-03-10T04:53:16.657Z,7.09
2019-03-10T04:56:01.786Z,7.10
2019-03-10T04:58:30.789Z,7.11
2019-03-10T05:01:00.137Z,7.13
2019-03-10T05:03:28.869Z,7.12
2019-03-10T05:05:57.310Z,7.12
2019-03-10T05:08:25.759Z,7.15
2019-03-10T05:10:54.185Z,7.16
2019-03-10T05:13:22.628Z,7.14
2019-03-10T05:15:51.057Z,7.13
2019-03-10T05:18:19.501Z,7.10
2019-03-10T05:20:48.689Z,7.10
2019-03-10T05:23:40.420Z,7.08
2019-03-10T05:26:08.860Z,7.08
2019-03-10T05:28:40.383Z,7.07
2019-03-10T05:31:08.853Z,7.07
2019-03-10T05:33:37.291Z,7.06
2019-03-10T05:36:05.733Z,7.04
2019-03-10T05:38:34.260Z,7.06
2019-03-10T05:41:02.693Z,7.07
2019-03-10T05:43:31.360Z,7.09
2019-03-10T05:45:59.927Z,7.10
2019-03-10T05:48:28.469Z,7.11
2019-03-10T05:50:56.947Z,7.11
2019-03-10T05:53:25.384Z,7.13
2019-03-10T05:55:53.849Z,7.15
2019-03-10T05:58:22.745Z,7.15
2019-03-10T06:00:51.818Z,7.12
2019-03-10T06:03:20.275Z,7.12
2019-03-10T06:05:48.715Z,7.11
2019-03-10T06:08:17.258Z,7.14
2019-03-10T06:10:45.675Z,7.13
2019-03-10T06:13:14.113Z,7.15
2019-03-10T06:15:42.923Z,7.15
2019-03-10T06:18:13.839Z,7.17
2019-03-10T06:20:41.671Z,7.21
2019-03-10T06:23:10.099Z,7.26
2019-03-10T06:25:38.543Z,7.26
2019-03-10T06:28:06.991Z,7.26
2019-03-10T06:30:35.448Z,7.28
2019-03-10T06:33:03.900Z,7.33
2019-03-10T06:35:32.400Z,7.35
2019-03-10T06:38:01.010Z,7.33
2019-03-10T06:40:32.405Z,7.31
2019-03-10T06:42:59.852Z,7.30
2019-03-10T06:45:28.270Z,7.32
2019-03-10T06:47:56.730Z,7.37
2019-03-10T06:50:25.241Z,7.39
2019-03-10T06:52:53.673Z,7.39
2019-03-10T06:55:22.125Z,7.39
2019-03-10T06:57:50.590Z,7.40
2019-03-10T07:00:19.050Z,7.42
2019-03-10T07:02:47.527Z,7.45
2019-03-10T07:05:15.953Z,7.48
2019-03-10T07:07:44.455Z,7.51
2019-03-10T07:10:14.568Z,7.50
2019-03-10T07:12:43.605Z,7.53
2019-03-10T07:15:13.892Z,7.54
2019-03-10T07:17:42.307Z,7.54
2019-03-10T07:20:16.525Z,7.58
2019-03-10T07:22:45.029Z,7.58
2019-03-10T07:25:13.484Z,7.58
2019-03-10T07:27:43.570Z,7.58
2019-03-10T07:30:31.219Z,7.59
2019-03-10T07:33:19.403Z,7.60
2019-03-10T07:36:05.847Z,7.58
2019-03-10T07:38:48.156Z,7.58
2019-03-10T07:41:18.263Z,7.56
2019-03-10T07:44:03.363Z,7.51
2019-03-10T07:46:49.714Z,7.41
2019-03-10T07:49:19.903Z,7.33
2019-03-10T07:51:55.523Z,7.38
2019-03-10T07:54:37.331Z,7.35
2019-03-10T07:57:25.515Z,7.39
2019-03-10T07:59:58.105Z,7.40
2019-03-10T08:02:44.472Z,7.43
2019-03-10T08:05:14.556Z,7.38
2019-03-10T08:07:53.987Z,7.38
2019-03-10T08:10:33.244Z,7.38
2019-03-10T08:13:03.446Z,7.41
2019-03-10T08:15:49.846Z,7.46
2019-03-10T08:18:19.945Z,7.45
2019-03-10T08:21:06.017Z,7.41
2019-03-10T08:23:48.052Z,7.44
2019-03-10T08:26:27.191Z,7.52
2019-03-10T08:29:05.983Z,7.54
2019-03-10T08:31:41.842Z,7.47
2019-03-10T08:34:17.340Z,7.44
2019-03-10T08:36:50.428Z,7.42
2019-03-10T08:39:29.634Z,7.32
2019-03-10T08:42:02.220Z,7.30
2019-03-10T08:44:37.891Z,7.28
2019-03-10T08:47:14.159Z,7.33
2019-03-10T08:49:45.466Z,7.36
2019-03-10T08:52:15.753Z,7.37
2019-03-10T08:55:00.889Z,7.33
2019-03-10T08:57:36.897Z,7.30
2019-03-10T09:00:10.028Z,7.24
2019-03-10T09:02:56.164Z,7.14
2019-03-10T09:05:26.246Z,7.08
2019-03-10T09:07:56.320Z,7.09
2019-03-10T09:10:35.082Z,7.15
2019-03-10T09:13:05.159Z,7.17
2019-03-10T09:15:35.245Z,7.24
2019-03-10T09:18:17.301Z,7.25
2019-03-10T09:20:52.956Z,7.27
2019-03-10T09:23:23.023Z,7.36
2019-03-10T09:26:09.712Z,7.34
2019-03-10T09:28:52.045Z,7.10
2019-03-10T09:31:25.243Z,7.31
2019-03-10T09:33:58.017Z,7.28
2019-03-10T09:36:33.569Z,7.28
2019-03-10T09:39:03.619Z,7.27
2019-03-10T09:41:33.776Z,7.21
2019-03-10T09:44:21.581Z,7.16
2019-03-10T09:46:57.959Z,7.15
2019-03-10T09:49:33.702Z,7.03
2019-03-10T09:52:06.250Z,7.02
2019-03-10T09:54:39.261Z,6.94
2019-03-10T09:57:18.599Z,6.84
2019-03-10T09:59:54.861Z,6.84
2019-03-10T10:02:27.845Z,6.93
2019-03-10T10:05:04.113Z,6.92
2019-03-10T10:07:34.201Z,6.93
2019-03-10T10:10:04.287Z,7.12
2019-03-10T10:12:40.337Z,7.39
2019-03-10T10:15:13.426Z,7.70
2019-03-10T10:17:43.512Z,7.69
2019-03-10T10:20:19.775Z,7.51
2019-03-10T10:22:58.600Z,7.47
2019-03-10T10:25:28.711Z,7.22
2019-03-10T10:28:10.870Z,6.99
2019-03-10T10:30:57.653Z,6.82
2019-03-10T10:33:30.409Z,6.64
2019-03-10T10:36:06.367Z,6.57
2019-03-10T10:38:37.764Z,6.57
2019-03-10T10:41:23.980Z,6.56
2019-03-10T10:43:54.381Z,6.48
2019-03-10T10:46:27.566Z,6.46
2019-03-10T10:49:12.444Z,6.57
2019-03-10T10:51:42.552Z,6.59
2019-03-10T10:54:13.110Z,6.60
2019-03-10T10:56:51.848Z,6.64
2019-03-10T10:59:24.565Z,6.66
2019-03-10T11:01:57.436Z,6.65
2019-03-10T11:04:42.511Z,6.54
2019-03-10T11:07:24.680Z,6.51
2019-03-10T11:09:54.819Z,6.50
2019-03-10T11:12:36.882Z,6.44
2019-03-10T11:15:12.738Z,6.37
2019-03-10T11:17:48.803Z,6.36
2019-03-10T11:20:19.309Z,6.32
2019-03-10T11:22:49.383Z,6.29
2019-03-10T11:25:19.465Z,6.32
2019-03-10T11:27:52.148Z,6.35
2019-03-10T11:30:28.377Z,6.32
2019-03-10T11:33:07.585Z,6.36
2019-03-10T11:35:37.691Z,6.39
2019-03-10T11:38:23.884Z,6.48
2019-03-10T11:40:59.786Z,6.63
2019-03-10T11:43:32.844Z,6.72
2019-03-10T11:46:24.463Z,6.78
2019-03-10T11:48:57.759Z,6.88
2019-03-10T11:51:33.763Z,6.98
2019-03-10T11:54:03.853Z,7.03
2019-03-10T11:56:42.002Z,7.07
2019-03-10T11:59:11.281Z,6.91
2019-03-10T12:01:47.637Z,6.92
2019-03-10T12:04:20.864Z,6.89
2019-03-10T12:06:50.968Z,6.83
2019-03-10T12:09:22.531Z,6.84
2019-03-10T12:11:51.643Z,6.83
2019-03-10T12:14:20.197Z,6.84
2019-03-10T12:16:48.935Z,6.78
2019-03-10T12:19:17.362Z,6.62
2019-03-10T12:21:45.796Z,6.51
2019-03-10T12:24:14.513Z,6.42
2019-03-10T12:26:43.021Z,6.31
2019-03-10T12:29:11.491Z,6.15
2019-03-10T12:31:39.961Z,6.13
2019-03-10T12:34:10.073Z,6.22
2019-03-10T12:36:38.843Z,6.30
2019-03-10T12:39:08.079Z,6.13
2019-03-10T12:41:36.688Z,5.97
2019-03-10T12:44:05.508Z,5.99
2019-03-10T12:46:33.971Z,5.98
2019-03-10T12:49:02.417Z,5.92
2019-03-10T12:51:30.943Z,5.96
2019-03-10T12:53:59.409Z,5.94
2019-03-10T12:56:27.845Z,5.85
2019-03-10T12:58:56.270Z,5.82
2019-03-10T13:01:24.739Z,5.87
2019-03-10T13:03:58.866Z,5.84
2019-03-10T13:06:23.450Z,5.62
2019-03-10T13:08:52.234Z,5.62
2019-03-10T13:11:20.727Z,5.67
2019-03-10T13:13:49.164Z,5.76
2019-03-10T13:16:17.619Z,5.68
2019-03-10T13:18:46.067Z,5.52
2019-03-10T13:21:14.594Z,5.51
2019-03-10T13:23:43.060Z,5.54
2019-03-10T13:26:11.499Z,5.58
2019-03-10T13:28:39.994Z,5.62
2019-03-10T13:31:08.465Z,5.61
2019-03-10T13:33:37.013Z,5.61
2019-03-10T13:36:05.814Z,5.63
2019-03-10T13:38:34.316Z,5.62
2019-03-10T13:41:02.772Z,5.52
2019-03-10T13:43:31.275Z,5.52
2019-03-10T13:45:59.699Z,5.40
2019-03-10T13:48:28.158Z,5.40
2019-03-10T13:50:56.591Z,5.41
2019-03-10T13:53:25.036Z,5.43
2019-03-10T13:55:53.542Z,5.34
2019-03-10T13:58:22.011Z,5.25
2019-03-10T14:00:50.810Z,5.20
2019-03-10T14:03:20.573Z,5.13
2019-03-10T14:05:49.194Z,5.09
2019-03-10T14:08:17.810Z,5.03
2019-03-10T14:10:46.352Z,5.00
2019-03-10T14:13:14.775Z,4.96
2019-03-10T14:15:44.563Z,4.93
2019-03-10T14:18:13.160Z,4.84
2019-03-10T14:20:41.712Z,4.71
2019-03-10T14:23:10.428Z,4.63
2019-03-10T14:25:38.880Z,4.58
2019-03-10T14:28:07.501Z,4.53
2019-03-10T14:30:35.942Z,4.48
2019-03-10T14:33:04.552Z,4.41
2019-03-10T14:35:33.009Z,4.35
2019-03-10T14:38:01.458Z,4.23
2019-03-10T14:40:29.925Z,4.07
2019-03-10T14:42:58.770Z,4.04
2019-03-10T14:45:27.455Z,4.01
2019-03-10T14:47:55.930Z,3.98
2019-03-10T14:50:24.399Z,4.00
2019-03-10T14:52:52.830Z,4.00
2019-03-10T14:55:22.415Z,4.12
2019-03-10T14:57:50.926Z,4.18
2019-03-10T15:00:24.212Z,4.20
2019-03-10T15:02:52.673Z,4.15
2019-03-10T15:05:21.561Z,4.08
2019-03-10T15:07:54.404Z,4.04
2019-03-10T15:10:23.078Z,3.97
2019-03-10T15:12:51.520Z,3.94
2019-03-10T15:15:22.878Z,3.93
2019-03-10T15:17:51.271Z,3.87
2019-03-10T15:20:21.620Z,3.80
2019-03-10T15:22:50.024Z,3.75
2019-03-10T15:25:24.971Z,3.67
2019-03-10T15:27:52.937Z,3.61
2019-03-10T15:30:25.977Z,3.50
2019-03-10T15:32:54.466Z,3.48
2019-03-10T15:35:22.983Z,3.40
2019-03-10T15:37:54.220Z,3.38
2019-03-10T15:40:23.749Z,3.48
2019-03-10T15:42:52.377Z,3.42
2019-03-10T15:45:20.952Z,3.26
2019-03-10T15:47:50.655Z,3.18
2019-03-10T15:50:37.102Z,3.08
2019-03-10T15:53:05.621Z,3.08
2019-03-10T15:55:34.387Z,3.10
2019-03-10T15:58:04.090Z,3.06
2019-03-10T16:00:32.898Z,3.06
2019-03-10T16:03:01.801Z,3.14
2019-03-10T16:05:30.223Z,3.16
2019-03-10T16:07:58.712Z,3.09
2019-03-10T16:10:27.129Z,3.05
2019-03-10T16:12:55.577Z,3.02
2019-03-10T16:15:26.240Z,2.88
2019-03-10T16:17:55.045Z,2.80
2019-03-10T16:20:23.484Z,2.84
2019-03-10T16:22:52.013Z,2.88
2019-03-10T16:25:20.530Z,2.96
2019-03-10T16:27:50.059Z,3.09
2019-03-10T16:30:19.748Z,3.13
2019-03-10T16:32:48.233Z,3.15
2019-03-10T16:35:17.245Z,3.15
2019-03-10T16:37:46.017Z,3.06
2019-03-10T16:40:16.581Z,2.84
2019-03-10T16:42:45.002Z,2.78
2019-03-10T16:45:15.838Z,2.76
2019-03-10T16:47:44.337Z,2.67
2019-03-10T16:50:15.439Z,2.56
2019-03-10T16:52:43.857Z,2.42
2019-03-10T16:55:12.361Z,2.27
2019-03-10T16:57:41.048Z,2.24
2019-03-10T17:00:12.276Z,2.20
2019-03-10T17:02:43.014Z,2.15
2019-03-10T17:05:16.536Z,2.12
2019-03-10T17:07:45.132Z,2.02
2019-03-10T17:10:15.638Z,1.96
2019-03-10T17:12:44.256Z,1.90
2019-03-10T17:15:15.703Z,1.94
2019-03-10T17:17:44.193Z,1.93
2019-03-10T17:20:15.163Z,1.87
2019-03-10T17:22:43.680Z,1.86
2019-03-10T17:25:14.014Z,1.85
2019-03-10T17:27:42.578Z,1.84
2019-03-10T17:30:22.574Z,1.86
2019-03-10T17:32:51.697Z,1.85
2019-03-10T17:35:21.162Z,1.85
2019-03-10T17:37:49.683Z,1.83
2019-03-10T17:40:21.914Z,1.79
2019-03-10T17:42:50.347Z,1.78
2019-03-10T17:45:20.056Z,1.81
2019-03-10T17:47:48.743Z,1.80
2019-03-10T17:50:18.393Z,1.76
2019-03-10T17:52:47.766Z,1.74
2019-03-10T17:55:17.772Z,1.70
2019-03-10T17:57:47.093Z,1.70
2019-03-10T18:00:23.109Z,1.69
2019-03-10T18:02:51.667Z,1.67
2019-03-10T18:05:20.189Z,1.64
2019-03-10T18:07:48.640Z,1.65
2019-03-10T18:10:18.210Z,1.63
2019-03-10T18:12:46.833Z,1.58
2019-03-10T18:15:19.021Z,1.57
2019-03-10T18:17:48.215Z,1.57
2019-03-10T18:20:21.367Z,1.58
2019-03-10T18:22:50.215Z,1.60
2019-03-10T18:25:18.772Z,1.62
2019-03-10T18:27:47.434Z,1.64
2019-03-10T18:30:20.691Z,1.69
2019-03-10T18:32:49.205Z,1.70
2019-03-10T18:35:17.626Z,1.71
2019-03-10T18:37:46.410Z,1.77
2019-03-10T18:40:17.385Z,1.84
2019-03-10T18:42:45.901Z,1.86
2019-03-10T18:45:16.499Z,1.90
2019-03-10T18:47:45.021Z,1.95
2019-03-10T18:50:17.973Z,1.95
2019-03-10T18:52:46.646Z,1.99
2019-03-10T18:55:16.554Z,2.00
2019-03-10T18:57:45.007Z,2.01
2019-03-10T19:00:22.369Z,2.01
2019-03-10T19:02:51.086Z,1.96
2019-03-10T19:05:19.565Z,2.03
2019-03-10T19:07:47.996Z,2.07
2019-03-10T19:10:16.478Z,2.09
2019-03-10T19:12:45.009Z,2.04
2019-03-10T19:15:18.844Z,2.06
2019-03-10T19:17:47.261Z,2.11
2019-03-10T19:20:16.172Z,2.13
2019-03-10T19:22:44.590Z,2.15
2019-03-10T19:25:14.480Z,2.14
2019-03-10T19:27:43.059Z,2.15
2019-03-10T19:30:14.162Z,2.12
2019-03-10T19:32:42.662Z,2.12
2019-03-10T19:35:12.090Z,2.14
2019-03-10T19:37:40.575Z,2.18
2019-03-10T19:40:14.810Z,2.20
2019-03-10T19:42:43.535Z,2.18
2019-03-10T19:45:14.324Z,2.18
2019-03-10T19:47:42.836Z,2.16
2019-03-10T19:50:13.633Z,2.14
2019-03-10T19:52:42.166Z,2.18
2019-03-10T19:55:15.319Z,2.20
2019-03-10T19:57:44.861Z,2.19
2019-03-10T20:00:15.522Z,2.19
2019-03-10T20:02:44.053Z,2.21
2019-03-10T20:05:13.256Z,2.19
2019-03-10T20:07:43.285Z,2.21
2019-03-10T20:10:19.467Z,2.21
2019-03-10T20:12:48.082Z,2.24
2019-03-10T20:15:18.862Z,2.22
2019-03-10T20:17:47.292Z,1.49
2019-03-10T20:20:17.851Z,2.22
2019-03-10T20:22:46.596Z,2.18
2019-03-10T20:25:16.177Z,2.15
2019-03-10T20:27:44.840Z,2.17
2019-03-10T20:30:21.379Z,2.15
2019-03-10T20:32:49.835Z,2.16
2019-03-10T20:35:18.342Z,2.18
2019-03-10T20:37:46.847Z,2.20
2019-03-10T20:40:23.146Z,2.20
2019-03-10T20:42:51.587Z,2.22
2019-03-10T20:45:20.045Z,2.25
2019-03-10T20:47:50.996Z,2.27
2019-03-10T20:50:20.712Z,2.27
2019-03-10T20:52:49.188Z,2.30
2019-03-10T20:55:17.706Z,2.32
2019-03-10T20:57:46.172Z,2.39
2019-03-10T21:00:20.122Z,2.42
2019-03-10T21:02:48.630Z,2.42
2019-03-10T21:05:17.170Z,2.43
2019-03-10T21:07:45.808Z,2.40
2019-03-10T21:10:24.798Z,2.45
2019-03-10T21:12:53.242Z,2.50
2019-03-10T21:15:20.545Z,2.49
2019-03-10T21:17:46.388Z,2.46
2019-03-10T21:20:15.305Z,2.45
2019-03-10T21:22:41.298Z,2.47
2019-03-10T21:25:16.160Z,2.49
2019-03-10T21:27:42.493Z,2.49
2019-03-10T21:30:17.362Z,2.51
2019-03-10T21:32:43.317Z,2.51
2019-03-10T21:35:17.170Z,2.51
2019-03-10T21:37:37.139Z,2.49
2019-03-10T21:40:06.751Z,2.50
2019-03-10T21:42:32.769Z,2.55
2019-03-10T21:44:58.599Z,2.59
2019-03-10T21:47:24.521Z,2.64
2019-03-10T21:49:50.328Z,2.64
2019-03-10T21:52:16.168Z,2.70
2019-03-10T21:54:42.008Z,2.74
2019-03-10T21:57:07.795Z,2.75
2019-03-10T21:59:33.608Z,2.76
2019-03-10T22:01:59.418Z,2.76
2019-03-10T22:04:25.227Z,2.79
2019-03-10T22:06:51.073Z,2.82
2019-03-10T22:09:16.857Z,2.81
2019-03-10T22:11:42.699Z,2.79
2019-03-10T22:14:08.506Z,2.79
2019-03-10T22:16:34.373Z,2.72
2019-03-10T22:19:00.163Z,2.66
2019-03-10T22:21:25.991Z,2.66
2019-03-10T22:23:59.323Z,2.58
2019-03-10T22:26:19.538Z,2.56
2019-03-10T22:28:45.428Z,2.54
2019-03-10T22:31:11.387Z,2.50
2019-03-10T22:33:37.277Z,2.50
2019-03-10T22:36:03.099Z,2.53
2019-03-10T22:38:28.890Z,2.48
2019-03-10T22:40:54.723Z,2.41
2019-03-10T22:43:20.525Z,2.34
2019-03-10T22:45:46.334Z,2.30
2019-03-10T22:48:12.151Z,2.32
2019-03-10T22:50:37.981Z,2.28
2019-03-10T22:53:03.830Z,2.25
2019-03-10T22:55:29.646Z,2.23
2019-03-10T22:57:55.627Z,2.29
2019-03-10T23:00:24.689Z,2.36
2019-03-10T23:02:50.569Z,2.40
2019-03-10T23:05:16.367Z,2.40
2019-03-10T23:07:42.339Z,2.42
2019-03-10T23:10:10.665Z,2.50
2019-03-10T23:12:36.505Z,2.54
2019-03-10T23:15:04.120Z,2.56
2019-03-10T23:17:29.926Z,2.58
2019-03-10T23:19:55.896Z,2.62
2019-03-10T23:22:21.767Z,2.69
2019-03-10T23:24:47.595Z,2.75
2019-03-10T23:27:13.402Z,2.77
2019-03-10T23:29:39.233Z,2.81
2019-03-10T23:32:05.099Z,2.85
2019-03-10T23:34:30.945Z,2.90
2019-03-10T23:36:56.732Z,2.93
2019-03-10T23:39:22.552Z,2.96
2019-03-10T23:41:48.452Z,3.00
2019-03-10T23:44:14.267Z,3.04
2019-03-10T23:46:40.148Z,3.14
2019-03-10T23:49:05.947Z,3.18
2019-03-10T23:51:31.743Z,3.22
2019-03-10T23:56:40.147Z,3.31
2019-03-10T23:59:08.730Z,3.28
